sensor_id;sensor_type;location;lat;lon;timestamp;pressure;altitude;pressure_sealevel;temperature
39959;BMP280;25639;53.634;9.880;2022-08-19T00:00:11;157204.81;;;19.50
39959;BMP280;25639;53.634;9.880;2022-08-19T00:02:40;157208.66;;;19.51
39959;BMP280;25639;53.634;9.880;2022-08-19T00:05:07;157197.09;;;19.47
39959;BMP280;25639;53.634;9.880;2022-08-19T00:07:33;157195.84;;;19.46
39959;BMP280;25639;53.634;9.880;2022-08-19T00:09:58;157185.53;;;19.42
39959;BMP280;25639;53.634;9.880;2022-08-19T00:12:24;157174.03;;;19.37
39959;BMP280;25639;53.634;9.880;2022-08-19T00:14:49;157174.03;;;19.37
39959;BMP280;25639;53.634;9.880;2022-08-19T00:17:14;157172.72;;;19.37
39959;BMP280;25639;53.634;9.880;2022-08-19T00:19:40;157161.22;;;19.32
39959;BMP280;25639;53.634;9.880;2022-08-19T00:22:05;157177.88;;;19.39
39959;BMP280;25639;53.634;9.880;2022-08-19T00:24:31;157186.84;;;19.42
39959;BMP280;25639;53.634;9.880;2022-08-19T00:26:57;157185.53;;;19.42
39959;BMP280;25639;53.634;9.880;2022-08-19T00:29:24;157186.84;;;19.42
39959;BMP280;25639;53.634;9.880;2022-08-19T00:31:50;157176.56;;;19.38
39959;BMP280;25639;53.634;9.880;2022-08-19T00:34:19;157190.66;;;19.44
39959;BMP280;25639;53.634;9.880;2022-08-19T00:36:45;157195.84;;;19.46
39959;BMP280;25639;53.634;9.880;2022-08-19T00:39:11;157200.97;;;19.48
39959;BMP280;25639;53.634;9.880;2022-08-19T00:41:38;157198.38;;;19.47
39959;BMP280;25639;53.634;9.880;2022-08-19T00:44:10;157191.97;;;19.45
39959;BMP280;25639;53.634;9.880;2022-08-19T00:46:40;157175.31;;;19.38
39959;BMP280;25639;53.634;9.880;2022-08-19T00:49:17;157194.53;;;19.46
39959;BMP280;25639;53.634;9.880;2022-08-19T00:51:47;157180.44;;;19.40
39959;BMP280;25639;53.634;9.880;2022-08-19T00:54:13;157188.13;;;19.43
39959;BMP280;25639;53.634;9.880;2022-08-19T00:56:39;157188.13;;;19.43
39959;BMP280;25639;53.634;9.880;2022-08-19T00:59:05;157179.16;;;19.39
39959;BMP280;25639;53.634;9.880;2022-08-19T01:01:37;157166.31;;;19.34
39959;BMP280;25639;53.634;9.880;2022-08-19T01:04:02;157154.75;;;19.30
39959;BMP280;25639;53.634;9.880;2022-08-19T01:06:28;157159.94;;;19.32
39959;BMP280;25639;53.634;9.880;2022-08-19T01:08:58;157152.22;;;19.29
39959;BMP280;25639;53.634;9.880;2022-08-19T01:11:23;157150.97;;;19.28
39959;BMP280;25639;53.634;9.880;2022-08-19T01:13:50;157140.69;;;19.24
39959;BMP280;25639;53.634;9.880;2022-08-19T01:16:19;157139.41;;;19.23
39959;BMP280;25639;53.634;9.880;2022-08-19T01:18:45;157126.56;;;19.18
39959;BMP280;25639;53.634;9.880;2022-08-19T01:21:24;157124.03;;;19.17
39959;BMP280;25639;53.634;9.880;2022-08-19T01:23:53;157138.13;;;19.23
39959;BMP280;25639;53.634;9.880;2022-08-19T01:26:21;157149.66;;;19.28
39959;BMP280;25639;53.634;9.880;2022-08-19T01:28:49;157126.56;;;19.18
39959;BMP280;25639;53.634;9.880;2022-08-19T01:31:19;157138.13;;;19.23
39959;BMP280;25639;53.634;9.880;2022-08-19T01:33:48;157111.22;;;19.12
39959;BMP280;25639;53.634;9.880;2022-08-19T01:36:24;157127.84;;;19.19
39959;BMP280;25639;53.634;9.880;2022-08-19T01:38:51;157116.34;;;19.14
39959;BMP280;25639;53.634;9.880;2022-08-19T01:41:17;157111.22;;;19.12
39959;BMP280;25639;53.634;9.880;2022-08-19T01:43:44;157075.31;;;18.98
39959;BMP280;25639;53.634;9.880;2022-08-19T01:46:10;157077.84;;;18.99
39959;BMP280;25639;53.634;9.880;2022-08-19T01:48:39;157100.94;;;19.08
39959;BMP280;25639;53.634;9.880;2022-08-19T01:51:07;157106.09;;;19.10
39959;BMP280;25639;53.634;9.880;2022-08-19T01:53:33;157090.69;;;19.04
39959;BMP280;25639;53.634;9.880;2022-08-19T01:56:00;157089.41;;;19.03
39959;BMP280;25639;53.634;9.880;2022-08-19T01:58:30;157084.28;;;19.01
39959;BMP280;25639;53.634;9.880;2022-08-19T02:00:57;157091.94;;;19.04
39959;BMP280;25639;53.634;9.880;2022-08-19T02:03:23;157090.69;;;19.04
39959;BMP280;25639;53.634;9.880;2022-08-19T02:05:57;157088.16;;;19.03
39959;BMP280;25639;53.634;9.880;2022-08-19T02:08:25;157074.00;;;18.97
39959;BMP280;25639;53.634;9.880;2022-08-19T02:10:50;157043.25;;;18.85
39959;BMP280;25639;53.634;9.880;2022-08-19T02:13:16;157049.69;;;18.88
39959;BMP280;25639;53.634;9.880;2022-08-19T02:15:41;157040.69;;;18.84
39959;BMP280;25639;53.634;9.880;2022-08-19T02:18:07;157044.56;;;18.85
39959;BMP280;25639;53.634;9.880;2022-08-19T02:20:33;157041.97;;;18.84
39959;BMP280;25639;53.634;9.880;2022-08-19T02:22:59;157040.69;;;18.84
39959;BMP280;25639;53.634;9.880;2022-08-19T02:25:25;157040.69;;;18.84
39959;BMP280;25639;53.634;9.880;2022-08-19T02:27:50;157034.28;;;18.81
39959;BMP280;25639;53.634;9.880;2022-08-19T02:30:16;157030.41;;;18.80
39959;BMP280;25639;53.634;9.880;2022-08-19T02:32:42;157021.44;;;18.76
39959;BMP280;25639;53.634;9.880;2022-08-19T02:35:08;157013.75;;;18.73
39959;BMP280;25639;53.634;9.880;2022-08-19T02:37:34;157008.63;;;18.71
39959;BMP280;25639;53.634;9.880;2022-08-19T02:40:18;157011.16;;;18.72
39959;BMP280;25639;53.634;9.880;2022-08-19T02:42:44;157015.00;;;18.74
39959;BMP280;25639;53.634;9.880;2022-08-19T02:45:11;157013.75;;;18.73
39959;BMP280;25639;53.634;9.880;2022-08-19T02:47:36;157011.16;;;18.72
39959;BMP280;25639;53.634;9.880;2022-08-19T02:50:03;157020.13;;;18.76
39959;BMP280;25639;53.634;9.880;2022-08-19T02:52:29;157026.56;;;18.78
39959;BMP280;25639;53.634;9.880;2022-08-19T02:54:54;157013.75;;;18.73
39959;BMP280;25639;53.634;9.880;2022-08-19T02:57:23;156999.66;;;18.67
39959;BMP280;25639;53.634;9.880;2022-08-19T02:59:48;156985.56;;;18.62
39959;BMP280;25639;53.634;9.880;2022-08-19T03:02:15;156999.66;;;18.67
39959;BMP280;25639;53.634;9.880;2022-08-19T03:04:40;156989.34;;;18.63
39959;BMP280;25639;53.634;9.880;2022-08-19T03:07:06;156979.13;;;18.59
39959;BMP280;25639;53.634;9.880;2022-08-19T03:09:31;156984.25;;;18.61
39959;BMP280;25639;53.634;9.880;2022-08-19T03:11:57;156988.09;;;18.63
39959;BMP280;25639;53.634;9.880;2022-08-19T03:14:22;157002.19;;;18.68
39959;BMP280;25639;53.634;9.880;2022-08-19T03:16:50;156985.56;;;18.62
39959;BMP280;25639;53.634;9.880;2022-08-19T03:19:18;157003.50;;;18.69
39959;BMP280;25639;53.634;9.880;2022-08-19T03:21:46;157000.91;;;18.68
39959;BMP280;25639;53.634;9.880;2022-08-19T03:24:13;156982.97;;;18.61
39959;BMP280;25639;53.634;9.880;2022-08-19T03:26:41;156995.78;;;18.66
39959;BMP280;25639;53.634;9.880;2022-08-19T03:29:07;156982.97;;;18.61
39959;BMP280;25639;53.634;9.880;2022-08-19T03:31:35;156980.38;;;18.60
39959;BMP280;25639;53.634;9.880;2022-08-19T03:34:00;156977.84;;;18.59
39959;BMP280;25639;53.634;9.880;2022-08-19T03:36:26;156979.13;;;18.59
39959;BMP280;25639;53.634;9.880;2022-08-19T03:38:55;156963.75;;;18.53
39959;BMP280;25639;53.634;9.880;2022-08-19T03:41:27;156989.34;;;18.63
39959;BMP280;25639;53.634;9.880;2022-08-19T03:43:54;157003.50;;;18.69
39959;BMP280;25639;53.634;9.880;2022-08-19T03:46:25;157002.19;;;18.68
39959;BMP280;25639;53.634;9.880;2022-08-19T03:48:53;157012.47;;;18.73
39959;BMP280;25639;53.634;9.880;2022-08-19T03:51:48;157015.00;;;18.74
39959;BMP280;25639;53.634;9.880;2022-08-19T03:54:17;157013.75;;;18.73
39959;BMP280;25639;53.634;9.880;2022-08-19T03:56:44;157021.44;;;18.76
39959;BMP280;25639;53.634;9.880;2022-08-19T03:59:19;157004.75;;;18.70
39959;BMP280;25639;53.634;9.880;2022-08-19T04:01:45;156998.34;;;18.67
39959;BMP280;25639;53.634;9.880;2022-08-19T04:04:11;157000.91;;;18.68
39959;BMP280;25639;53.634;9.880;2022-08-19T04:06:38;156990.69;;;18.64
39959;BMP280;25639;53.634;9.880;2022-08-19T04:09:06;156979.13;;;18.59
39959;BMP280;25639;53.634;9.880;2022-08-19T04:11:36;156981.72;;;18.60
39959;BMP280;25639;53.634;9.880;2022-08-19T04:14:05;156982.97;;;18.61
39959;BMP280;25639;53.634;9.880;2022-08-19T04:16:30;156984.25;;;18.61
39959;BMP280;25639;53.634;9.880;2022-08-19T04:18:58;156968.88;;;18.55
39959;BMP280;25639;53.634;9.880;2022-08-19T04:21:25;156974.00;;;18.57
39959;BMP280;25639;53.634;9.880;2022-08-19T04:23:52;156968.88;;;18.55
39959;BMP280;25639;53.634;9.880;2022-08-19T04:26:19;156961.19;;;18.52
39959;BMP280;25639;53.634;9.880;2022-08-19T04:28:45;156962.44;;;18.53
39959;BMP280;25639;53.634;9.880;2022-08-19T04:31:23;156974.00;;;18.57
39959;BMP280;25639;53.634;9.880;2022-08-19T04:33:59;156968.88;;;18.55
39959;BMP280;25639;53.634;9.880;2022-08-19T04:36:29;156971.41;;;18.56
39959;BMP280;25639;53.634;9.880;2022-08-19T04:38:56;156976.59;;;18.58
39959;BMP280;25639;53.634;9.880;2022-08-19T04:41:22;156975.28;;;18.58
39959;BMP280;25639;53.634;9.880;2022-08-19T04:44:07;156998.34;;;18.67
39959;BMP280;25639;53.634;9.880;2022-08-19T04:46:33;156980.38;;;18.60
39959;BMP280;25639;53.634;9.880;2022-08-19T04:49:00;156980.38;;;18.60
39959;BMP280;25639;53.634;9.880;2022-08-19T04:51:25;156997.06;;;18.66
39959;BMP280;25639;53.634;9.880;2022-08-19T04:53:51;156995.78;;;18.66
39959;BMP280;25639;53.634;9.880;2022-08-19T04:56:18;156995.78;;;18.66
39959;BMP280;25639;53.634;9.880;2022-08-19T04:58:47;156995.78;;;18.66
39959;BMP280;25639;53.634;9.880;2022-08-19T05:01:21;157006.03;;;18.70
39959;BMP280;25639;53.634;9.880;2022-08-19T05:03:47;157003.50;;;18.69
39959;BMP280;25639;53.634;9.880;2022-08-19T05:06:15;156997.06;;;18.66
39959;BMP280;25639;53.634;9.880;2022-08-19T05:08:42;156990.69;;;18.64
39959;BMP280;25639;53.634;9.880;2022-08-19T05:11:23;156986.81;;;18.62
39959;BMP280;25639;53.634;9.880;2022-08-19T05:13:49;156970.16;;;18.56
39959;BMP280;25639;53.634;9.880;2022-08-19T05:16:17;156971.41;;;18.56
39959;BMP280;25639;53.634;9.880;2022-08-19T05:18:43;156959.91;;;18.52
39959;BMP280;25639;53.634;9.880;2022-08-19T05:21:28;156952.22;;;18.48
39959;BMP280;25639;53.634;9.880;2022-08-19T05:24:13;156982.97;;;18.61
39959;BMP280;25639;53.634;9.880;2022-08-19T05:26:42;156989.34;;;18.63
39959;BMP280;25639;53.634;9.880;2022-08-19T05:29:10;156984.25;;;18.61
39959;BMP280;25639;53.634;9.880;2022-08-19T05:31:36;156993.22;;;18.65
39959;BMP280;25639;53.634;9.880;2022-08-19T05:34:02;156994.53;;;18.65
39959;BMP280;25639;53.634;9.880;2022-08-19T05:36:34;156989.34;;;18.63
39959;BMP280;25639;53.634;9.880;2022-08-19T05:39:00;156980.38;;;18.60
39959;BMP280;25639;53.634;9.880;2022-08-19T05:41:25;156957.34;;;18.51
39959;BMP280;25639;53.634;9.880;2022-08-19T05:43:56;156975.28;;;18.58
39959;BMP280;25639;53.634;9.880;2022-08-19T05:46:22;156982.97;;;18.61
39959;BMP280;25639;53.634;9.880;2022-08-19T05:48:48;156990.69;;;18.64
39959;BMP280;25639;53.634;9.880;2022-08-19T05:51:14;156994.53;;;18.65
39959;BMP280;25639;53.634;9.880;2022-08-19T05:53:41;156991.94;;;18.64
39959;BMP280;25639;53.634;9.880;2022-08-19T05:56:09;156986.81;;;18.62
39959;BMP280;25639;53.634;9.880;2022-08-19T05:58:37;157003.50;;;18.69
39959;BMP280;25639;53.634;9.880;2022-08-19T06:01:03;157008.63;;;18.71
39959;BMP280;25639;53.634;9.880;2022-08-19T06:03:33;157022.72;;;18.77
39959;BMP280;25639;53.634;9.880;2022-08-19T06:05:59;157023.97;;;18.77
39959;BMP280;25639;53.634;9.880;2022-08-19T06:08:26;157026.56;;;18.78
39959;BMP280;25639;53.634;9.880;2022-08-19T06:10:53;157025.25;;;18.78
39959;BMP280;25639;53.634;9.880;2022-08-19T06:13:18;157016.28;;;18.74
39959;BMP280;25639;53.634;9.880;2022-08-19T06:15:44;157022.72;;;18.77
39959;BMP280;25639;53.634;9.880;2022-08-19T06:18:12;157015.00;;;18.74
39959;BMP280;25639;53.634;9.880;2022-08-19T06:20:37;157021.44;;;18.76
39959;BMP280;25639;53.634;9.880;2022-08-19T06:23:03;157045.81;;;18.86
39959;BMP280;25639;53.634;9.880;2022-08-19T06:25:28;157047.09;;;18.86
39959;BMP280;25639;53.634;9.880;2022-08-19T06:27:54;157058.66;;;18.91
39959;BMP280;25639;53.634;9.880;2022-08-19T06:30:19;157065.03;;;18.94
39959;BMP280;25639;53.634;9.880;2022-08-19T06:32:44;157066.34;;;18.94
39959;BMP280;25639;53.634;9.880;2022-08-19T06:35:10;157061.19;;;18.92
39959;BMP280;25639;53.634;9.880;2022-08-19T06:37:36;157052.22;;;18.89
39959;BMP280;25639;53.634;9.880;2022-08-19T06:40:02;157058.66;;;18.91
39959;BMP280;25639;53.634;9.880;2022-08-19T06:42:28;157082.97;;;19.01
39959;BMP280;25639;53.634;9.880;2022-08-19T06:44:53;157090.69;;;19.04
39959;BMP280;25639;53.634;9.880;2022-08-19T06:47:20;157080.44;;;19.00
39959;BMP280;25639;53.634;9.880;2022-08-19T06:49:46;157079.19;;;18.99
39959;BMP280;25639;53.634;9.880;2022-08-19T06:52:12;157088.16;;;19.03
39959;BMP280;25639;53.634;9.880;2022-08-19T06:54:38;157085.56;;;19.02
39959;BMP280;25639;53.634;9.880;2022-08-19T06:57:05;157085.56;;;19.02
39959;BMP280;25639;53.634;9.880;2022-08-19T06:59:31;157085.56;;;19.02
39959;BMP280;25639;53.634;9.880;2022-08-19T07:02:00;157085.56;;;19.02
39959;BMP280;25639;53.634;9.880;2022-08-19T07:04:28;157071.47;;;18.96
39959;BMP280;25639;53.634;9.880;2022-08-19T07:07:00;157072.75;;;18.97
39959;BMP280;25639;53.634;9.880;2022-08-19T07:09:27;157106.09;;;19.10
39959;BMP280;25639;53.634;9.880;2022-08-19T07:11:53;157107.38;;;19.11
39959;BMP280;25639;53.634;9.880;2022-08-19T07:14:22;157111.22;;;19.12
39959;BMP280;25639;53.634;9.880;2022-08-19T07:16:49;157116.34;;;19.14
39959;BMP280;25639;53.634;9.880;2022-08-19T07:19:16;157098.38;;;19.07
39959;BMP280;25639;53.634;9.880;2022-08-19T07:21:42;157099.66;;;19.08
39959;BMP280;25639;53.634;9.880;2022-08-19T07:24:08;157117.59;;;19.15
39959;BMP280;25639;53.634;9.880;2022-08-19T07:26:38;157130.44;;;19.20
39959;BMP280;25639;53.634;9.880;2022-08-19T07:29:04;157157.34;;;19.31
39959;BMP280;25639;53.634;9.880;2022-08-19T07:31:29;157149.66;;;19.28
39959;BMP280;25639;53.634;9.880;2022-08-19T07:33:56;157152.22;;;19.29
39959;BMP280;25639;53.634;9.880;2022-08-19T07:36:25;157143.25;;;19.25
39959;BMP280;25639;53.634;9.880;2022-08-19T07:38:58;157149.66;;;19.28
39959;BMP280;25639;53.634;9.880;2022-08-19T07:41:25;157145.78;;;19.26
39959;BMP280;25639;53.634;9.880;2022-08-19T07:43:51;157136.81;;;19.22
39959;BMP280;25639;53.634;9.880;2022-08-19T07:46:17;157144.53;;;19.26
39959;BMP280;25639;53.634;9.880;2022-08-19T07:48:46;157157.34;;;19.31
39959;BMP280;25639;53.634;9.880;2022-08-19T07:51:12;157143.25;;;19.25
39959;BMP280;25639;53.634;9.880;2022-08-19T07:53:38;157144.53;;;19.26
39959;BMP280;25639;53.634;9.880;2022-08-19T07:56:04;157153.50;;;19.29
39959;BMP280;25639;53.634;9.880;2022-08-19T07:58:33;157177.88;;;19.39
39959;BMP280;25639;53.634;9.880;2022-08-19T08:00:58;157166.31;;;19.34
39959;BMP280;25639;53.634;9.880;2022-08-19T08:03:25;157185.53;;;19.42
39959;BMP280;25639;53.634;9.880;2022-08-19T08:06:12;157183.00;;;19.41
39959;BMP280;25639;53.634;9.880;2022-08-19T08:08:57;157172.72;;;19.37
39959;BMP280;25639;53.634;9.880;2022-08-19T08:11:44;157180.44;;;19.40
39959;BMP280;25639;53.634;9.880;2022-08-19T08:14:15;157186.84;;;19.42
39959;BMP280;25639;53.634;9.880;2022-08-19T08:16:40;157177.88;;;19.39
39959;BMP280;25639;53.634;9.880;2022-08-19T08:19:07;157191.97;;;19.45
39959;BMP280;25639;53.634;9.880;2022-08-19T08:21:33;157150.97;;;19.28
39959;BMP280;25639;53.634;9.880;2022-08-19T08:23:58;157142.00;;;19.24
39959;BMP280;25639;53.634;9.880;2022-08-19T08:26:24;157172.72;;;19.37
39959;BMP280;25639;53.634;9.880;2022-08-19T08:28:51;157172.72;;;19.37
39959;BMP280;25639;53.634;9.880;2022-08-19T08:31:16;157171.44;;;19.36
39959;BMP280;25639;53.634;9.880;2022-08-19T08:33:44;157193.25;;;19.45
39959;BMP280;25639;53.634;9.880;2022-08-19T08:36:09;157203.50;;;19.49
39959;BMP280;25639;53.634;9.880;2022-08-19T08:38:36;157218.91;;;19.55
39959;BMP280;25639;53.634;9.880;2022-08-19T08:41:09;157207.34;;;19.51
39959;BMP280;25639;53.634;9.880;2022-08-19T08:43:40;157213.78;;;19.53
39959;BMP280;25639;53.634;9.880;2022-08-19T08:46:15;157234.28;;;19.61
39959;BMP280;25639;53.634;9.880;2022-08-19T08:48:59;157256.06;;;19.70
39959;BMP280;25639;53.634;9.880;2022-08-19T08:51:32;157286.91;;;19.83
39959;BMP280;25639;53.634;9.880;2022-08-19T08:54:00;157281.78;;;19.80
39959;BMP280;25639;53.634;9.880;2022-08-19T08:56:26;157288.19;;;19.83
39959;BMP280;25639;53.634;9.880;2022-08-19T08:58:58;157283.06;;;19.81
39959;BMP280;25639;53.634;9.880;2022-08-19T09:01:24;157286.91;;;19.83
39959;BMP280;25639;53.634;9.880;2022-08-19T09:03:50;157295.88;;;19.86
39959;BMP280;25639;53.634;9.880;2022-08-19T09:06:56;157284.31;;;19.81
39959;BMP280;25639;53.634;9.880;2022-08-19T09:12:18;157299.75;;;19.88
39959;BMP280;25639;53.634;9.880;2022-08-19T09:14:53;157301.00;;;19.88
39959;BMP280;25639;53.634;9.880;2022-08-19T09:17:23;157298.47;;;19.87
39959;BMP280;25639;53.634;9.880;2022-08-19T09:20:18;157306.13;;;19.90
39959;BMP280;25639;53.634;9.880;2022-08-19T09:22:44;157293.31;;;19.85
39959;BMP280;25639;53.634;9.880;2022-08-19T09:25:14;157295.88;;;19.86
39959;BMP280;25639;53.634;9.880;2022-08-19T09:27:42;157288.19;;;19.83
39959;BMP280;25639;53.634;9.880;2022-08-19T09:30:13;157284.31;;;19.81
39959;BMP280;25639;53.634;9.880;2022-08-19T09:32:39;157268.97;;;19.75
39959;BMP280;25639;53.634;9.880;2022-08-19T09:35:07;157270.22;;;19.76
39959;BMP280;25639;53.634;9.880;2022-08-19T09:37:32;157288.19;;;19.83
39959;BMP280;25639;53.634;9.880;2022-08-19T09:39:58;157304.88;;;19.90
39959;BMP280;25639;53.634;9.880;2022-08-19T09:42:23;157312.56;;;19.93
39959;BMP280;25639;53.634;9.880;2022-08-19T09:44:48;157365.16;;;20.14
39959;BMP280;25639;53.634;9.880;2022-08-19T09:47:14;157386.94;;;20.23
39959;BMP280;25639;53.634;9.880;2022-08-19T09:49:40;157404.91;;;20.30
39959;BMP280;25639;53.634;9.880;2022-08-19T09:52:08;157411.34;;;20.32
39959;BMP280;25639;53.634;9.880;2022-08-19T09:54:34;157398.50;;;20.27
39959;BMP280;25639;53.634;9.880;2022-08-19T09:57:00;157389.53;;;20.24
39959;BMP280;25639;53.634;9.880;2022-08-19T09:59:26;157374.16;;;20.17
39959;BMP280;25639;53.634;9.880;2022-08-19T10:01:52;157362.59;;;20.13
39959;BMP280;25639;53.634;9.880;2022-08-19T10:04:18;157344.63;;;20.06
39959;BMP280;25639;53.634;9.880;2022-08-19T10:06:44;157381.81;;;20.21
39959;BMP280;25639;53.634;9.880;2022-08-19T10:09:14;157388.25;;;20.23
39959;BMP280;25639;53.634;9.880;2022-08-19T10:11:41;157394.66;;;20.26
39959;BMP280;25639;53.634;9.880;2022-08-19T10:14:07;157416.47;;;20.34
39959;BMP280;25639;53.634;9.880;2022-08-19T10:16:32;157419.03;;;20.35
39959;BMP280;25639;53.634;9.880;2022-08-19T10:18:58;157397.22;;;20.27
39959;BMP280;25639;53.634;9.880;2022-08-19T10:21:27;157388.25;;;20.23
39959;BMP280;25639;53.634;9.880;2022-08-19T10:23:56;157379.28;;;20.19
39959;BMP280;25639;53.634;9.880;2022-08-19T10:26:25;157394.66;;;20.26
39959;BMP280;25639;53.634;9.880;2022-08-19T10:28:51;157372.84;;;20.17
39959;BMP280;25639;53.634;9.880;2022-08-19T10:31:19;157365.16;;;20.14
39959;BMP280;25639;53.634;9.880;2022-08-19T10:33:49;157360.00;;;20.12
39959;BMP280;25639;53.634;9.880;2022-08-19T10:36:18;157349.75;;;20.08
39959;BMP280;25639;53.634;9.880;2022-08-19T10:38:45;157363.84;;;20.13
39959;BMP280;25639;53.634;9.880;2022-08-19T10:41:15;157399.78;;;20.28
39959;BMP280;25639;53.634;9.880;2022-08-19T10:43:41;157435.69;;;20.42
39959;BMP280;25639;53.634;9.880;2022-08-19T10:46:09;157453.66;;;20.49
39959;BMP280;25639;53.634;9.880;2022-08-19T10:48:35;157493.47;;;20.65
39959;BMP280;25639;53.634;9.880;2022-08-19T10:51:01;157566.66;;;20.94
39959;BMP280;25639;53.634;9.880;2022-08-19T10:53:45;157582.03;;;21.01
39959;BMP280;25639;53.634;9.880;2022-08-19T10:56:11;157619.22;;;21.16
39959;BMP280;25639;53.634;9.880;2022-08-19T10:58:55;157669.31;;;21.36
39959;BMP280;25639;53.634;9.880;2022-08-19T11:01:22;157743.78;;;21.65
39959;BMP280;25639;53.634;9.880;2022-08-19T11:03:47;157801.56;;;21.88
39959;BMP280;25639;53.634;9.880;2022-08-19T11:06:12;157864.47;;;22.14
39959;BMP280;25639;53.634;9.880;2022-08-19T11:08:38;157914.59;;;22.34
39959;BMP280;25639;53.634;9.880;2022-08-19T11:11:05;157892.75;;;22.25
39959;BMP280;25639;53.634;9.880;2022-08-19T11:13:34;157860.63;;;22.12
39959;BMP280;25639;53.634;9.880;2022-08-19T11:16:11;157858.06;;;22.11
39959;BMP280;25639;53.634;9.880;2022-08-19T11:18:40;157810.56;;;21.92
39959;BMP280;25639;53.634;9.880;2022-08-19T11:23:55;157909.47;;;22.32
39959;BMP280;25639;53.634;9.880;2022-08-19T11:26:22;157990.38;;;22.64
39959;BMP280;25639;53.634;9.880;2022-08-19T11:28:48;157974.97;;;22.58
39959;BMP280;25639;53.634;9.880;2022-08-19T11:31:16;157974.97;;;22.58
39959;BMP280;25639;53.634;9.880;2022-08-19T11:33:41;157968.53;;;22.55
39959;BMP280;25639;53.634;9.880;2022-08-19T11:36:07;157980.13;;;22.60
39959;BMP280;25639;53.634;9.880;2022-08-19T11:38:33;158007.09;;;22.71
39959;BMP280;25639;53.634;9.880;2022-08-19T11:41:04;158005.81;;;22.70
39959;BMP280;25639;53.634;9.880;2022-08-19T11:43:30;158046.91;;;22.87
39959;BMP280;25639;53.634;9.880;2022-08-19T11:45:56;158046.91;;;22.87
39959;BMP280;25639;53.634;9.880;2022-08-19T11:48:24;157974.97;;;22.58
39959;BMP280;25639;53.634;9.880;2022-08-19T11:50:50;157963.41;;;22.53
39959;BMP280;25639;53.634;9.880;2022-08-19T11:53:17;157963.41;;;22.53
39959;BMP280;25639;53.634;9.880;2022-08-19T11:55:45;158021.22;;;22.76
39959;BMP280;25639;53.634;9.880;2022-08-19T11:58:12;158028.94;;;22.79
39959;BMP280;25639;53.634;9.880;2022-08-19T12:00:39;158108.63;;;23.11
39959;BMP280;25639;53.634;9.880;2022-08-19T12:03:04;158140.75;;;23.24
39959;BMP280;25639;53.634;9.880;2022-08-19T12:05:30;158142.00;;;23.25
39959;BMP280;25639;53.634;9.880;2022-08-19T12:07:55;158170.31;;;23.36
39959;BMP280;25639;53.634;9.880;2022-08-19T12:10:21;158160.00;;;23.32
39959;BMP280;25639;53.634;9.880;2022-08-19T12:12:47;158163.84;;;23.33
39959;BMP280;25639;53.634;9.880;2022-08-19T12:15:13;158225.56;;;23.58
39959;BMP280;25639;53.634;9.880;2022-08-19T12:17:40;158220.41;;;23.56
39959;BMP280;25639;53.634;9.880;2022-08-19T12:20:08;158300.16;;;23.88
39959;BMP280;25639;53.634;9.880;2022-08-19T12:22:35;158360.53;;;24.12
39959;BMP280;25639;53.634;9.880;2022-08-19T12:25:01;158386.25;;;24.22
39959;BMP280;25639;53.634;9.880;2022-08-19T12:27:26;158394.00;;;24.25
39959;BMP280;25639;53.634;9.880;2022-08-19T12:29:51;158391.41;;;24.24
39959;BMP280;25639;53.634;9.880;2022-08-19T12:32:17;158368.25;;;24.15
39959;BMP280;25639;53.634;9.880;2022-08-19T12:34:42;158400.41;;;24.28
39959;BMP280;25639;53.634;9.880;2022-08-19T12:37:08;158355.41;;;24.10
39959;BMP280;25639;53.634;9.880;2022-08-19T12:39:41;158386.25;;;24.22
39959;BMP280;25639;53.634;9.880;2022-08-19T12:42:08;158348.94;;;24.07
39959;BMP280;25639;53.634;9.880;2022-08-19T12:44:35;158305.28;;;23.90
39959;BMP280;25639;53.634;9.880;2022-08-19T12:47:01;158288.56;;;23.83
39959;BMP280;25639;53.634;9.880;2022-08-19T12:49:29;158292.44;;;23.85
39959;BMP280;25639;53.634;9.880;2022-08-19T12:51:55;158325.81;;;23.98
39959;BMP280;25639;53.634;9.880;2022-08-19T12:54:20;158333.53;;;24.01
39959;BMP280;25639;53.634;9.880;2022-08-19T12:56:45;158320.69;;;23.96
39959;BMP280;25639;53.634;9.880;2022-08-19T12:59:11;158351.53;;;24.08
39959;BMP280;25639;53.634;9.880;2022-08-19T13:01:37;158383.66;;;24.21
39959;BMP280;25639;53.634;9.880;2022-08-19T13:04:03;158385.00;;;24.22
39959;BMP280;25639;53.634;9.880;2022-08-19T13:06:28;158478.84;;;24.59
39959;BMP280;25639;53.634;9.880;2022-08-19T13:08:54;158449.25;;;24.47
39959;BMP280;25639;53.634;9.880;2022-08-19T13:11:20;158459.53;;;24.51
39959;BMP280;25639;53.634;9.880;2022-08-19T13:13:50;158450.53;;;24.48
39959;BMP280;25639;53.634;9.880;2022-08-19T13:16:16;158460.78;;;24.52
39959;BMP280;25639;53.634;9.880;2022-08-19T13:18:45;158464.69;;;24.53
39959;BMP280;25639;53.634;9.880;2022-08-19T13:21:12;158419.66;;;24.35
39959;BMP280;25639;53.634;9.880;2022-08-19T13:23:38;158397.81;;;24.27
39959;BMP280;25639;53.634;9.880;2022-08-19T13:26:05;158366.94;;;24.14
39959;BMP280;25639;53.634;9.880;2022-08-19T13:28:31;158348.94;;;24.07
39959;BMP280;25639;53.634;9.880;2022-08-19T13:31:19;158343.81;;;24.05
39959;BMP280;25639;53.634;9.880;2022-08-19T13:34:03;158395.25;;;24.26
39959;BMP280;25639;53.634;9.880;2022-08-19T13:36:29;158387.53;;;24.23
39959;BMP280;25639;53.634;9.880;2022-08-19T13:38:54;158360.53;;;24.12
39959;BMP280;25639;53.634;9.880;2022-08-19T13:41:19;158316.81;;;23.94
39959;BMP280;25639;53.634;9.880;2022-08-19T13:43:45;158293.69;;;23.85
39959;BMP280;25639;53.634;9.880;2022-08-19T13:46:11;158319.41;;;23.95
39959;BMP280;25639;53.634;9.880;2022-08-19T13:48:39;158310.41;;;23.92
39959;BMP280;25639;53.634;9.880;2022-08-19T13:51:07;158332.28;;;24.01
39959;BMP280;25639;53.634;9.880;2022-08-19T13:53:35;158365.69;;;24.14
39959;BMP280;25639;53.634;9.880;2022-08-19T13:56:05;158343.81;;;24.05
39959;BMP280;25639;53.634;9.880;2022-08-19T13:58:31;158320.69;;;23.96
39959;BMP280;25639;53.634;9.880;2022-08-19T14:00:57;158273.13;;;23.77
39959;BMP280;25639;53.634;9.880;2022-08-19T14:03:24;158341.28;;;24.04
39959;BMP280;25639;53.634;9.880;2022-08-19T14:05:49;158356.69;;;24.10